createdAt,value
2022-10-22T00:02:04.253Z,11.85
2022-10-22T00:04:34.439Z,11.40
2022-10-22T00:07:01.963Z,9.38
2022-10-22T00:09:28.341Z,12.13
2022-10-22T00:11:55.169Z,13.90
2022-10-22T00:14:21.571Z,8.40
2022-10-22T00:16:48.108Z,11.00
2022-10-22T00:19:14.957Z,18.45
2022-10-22T00:21:41.566Z,11.75
2022-10-22T00:24:08.247Z,15.68
2022-10-22T00:26:34.866Z,18.73
2022-10-22T00:29:01.308Z,21.10
2022-10-22T00:31:27.787Z,12.85
2022-10-22T00:33:54.163Z,10.10
2022-10-22T00:36:20.554Z,8.35
2022-10-22T00:38:46.918Z,12.15
2022-10-22T00:41:13.629Z,18.25
2022-10-22T00:44:01.495Z,16.38
2022-10-22T00:53:16.773Z,16.63
2022-10-22T00:55:46.793Z,11.63
2022-10-22T00:58:14.106Z,10.48
2022-10-22T01:00:40.706Z,23.88
2022-10-22T01:03:07.387Z,9.10
2022-10-22T01:05:43.008Z,24.10
2022-10-22T01:08:21.230Z,10.70
2022-10-22T01:11:08.949Z,9.02
2022-10-22T01:13:47.585Z,5.10
2022-10-22T01:16:32.366Z,14.05
2022-10-22T01:19:25.539Z,10.50
2022-10-22T01:21:58.619Z,8.65
2022-10-22T01:24:35.474Z,8.43
2022-10-22T01:27:17.358Z,11.60
2022-10-22T01:29:48.790Z,8.02
2022-10-22T01:32:22.631Z,12.48
2022-10-22T01:34:53.544Z,15.35
2022-10-22T01:37:24.010Z,8.73
2022-10-22T01:39:51.895Z,10.00
2022-10-22T01:42:18.340Z,7.65
2022-10-22T01:44:44.813Z,10.68
2022-10-22T01:47:34.409Z,5.53
2022-10-22T01:50:13.970Z,8.75
2022-10-22T01:53:37.887Z,10.90
2022-10-22T01:56:10.244Z,6.45
2022-10-22T01:58:36.561Z,10.38
2022-10-22T02:01:19.019Z,9.05
2022-10-22T02:03:57.892Z,13.68
2022-10-22T02:06:27.182Z,10.70
2022-10-22T02:08:54.676Z,8.13
2022-10-22T02:11:21.235Z,10.85
2022-10-22T02:13:53.103Z,8.68
2022-10-22T02:16:27.658Z,8.50
2022-10-22T02:18:56.643Z,14.88
2022-10-22T02:21:23.378Z,9.73
2022-10-22T02:23:50.268Z,7.82
2022-10-22T02:26:25.110Z,12.10
2022-10-22T02:29:14.500Z,8.23
2022-10-22T02:31:44.691Z,8.98
2022-10-22T02:34:17.199Z,11.43
2022-10-22T02:36:48.082Z,5.10
2022-10-22T02:39:19.321Z,12.85
2022-10-22T02:41:45.940Z,7.82
2022-10-22T02:44:12.762Z,13.18
2022-10-22T02:46:40.421Z,14.48
2022-10-22T02:49:06.856Z,8.57
2022-10-22T02:51:33.375Z,13.95
2022-10-22T02:53:59.810Z,11.27
2022-10-22T02:56:26.227Z,7.75
2022-10-22T02:58:53.041Z,14.10
2022-10-22T03:01:19.460Z,11.27
2022-10-22T03:03:45.883Z,8.48
2022-10-22T03:06:12.986Z,13.07
2022-10-22T03:08:40.516Z,8.90
2022-10-22T03:11:07.158Z,6.47
2022-10-22T03:13:33.673Z,10.32
2022-10-22T03:16:00.075Z,12.23
2022-10-22T03:18:26.500Z,16.08
2022-10-22T03:21:10.628Z,9.40
2022-10-22T03:23:38.611Z,8.63
2022-10-22T03:26:06.099Z,11.10
2022-10-22T03:28:34.072Z,11.50
2022-10-22T03:31:00.796Z,9.52
2022-10-22T03:33:27.194Z,11.93
2022-10-22T03:35:53.643Z,8.57
2022-10-22T03:38:20.156Z,7.93
2022-10-22T03:40:47.295Z,6.60
2022-10-22T03:43:14.085Z,11.10
2022-10-22T03:45:40.587Z,9.88
2022-10-22T03:48:07.062Z,9.30
2022-10-22T03:50:33.682Z,11.30
2022-10-22T03:53:00.084Z,8.82
2022-10-22T03:55:26.980Z,11.52
2022-10-22T03:57:53.631Z,13.00
2022-10-22T04:00:20.191Z,7.80
2022-10-22T04:02:46.637Z,8.93
2022-10-22T04:07:40.712Z,9.23
2022-10-22T04:10:07.749Z,8.75
2022-10-22T04:12:34.170Z,9.40
2022-10-22T04:15:00.588Z,10.68
2022-10-22T04:17:27.754Z,10.57
2022-10-22T04:19:54.193Z,14.05
2022-10-22T04:22:20.603Z,9.23
2022-10-22T04:24:46.996Z,7.20
2022-10-22T04:27:13.410Z,8.45
2022-10-22T04:29:39.858Z,8.68
2022-10-22T04:32:06.281Z,8.23
2022-10-22T04:34:32.693Z,7.85
2022-10-22T04:36:59.127Z,10.70
2022-10-22T04:39:25.606Z,4.22
2022-10-22T04:41:51.986Z,5.13
2022-10-22T04:44:18.408Z,5.65
2022-10-22T04:46:45.716Z,6.07
2022-10-22T04:49:12.154Z,1.95
2022-10-22T04:51:38.963Z,4.47
2022-10-22T04:54:05.610Z,4.00
2022-10-22T04:56:32.912Z,7.93
2022-10-22T04:59:01.685Z,3.58
2022-10-22T05:01:31.033Z,4.85
2022-10-22T05:03:59.927Z,2.72
2022-10-22T05:06:26.984Z,4.15
2022-10-22T05:08:59.110Z,6.28
2022-10-22T05:11:28.793Z,7.07
2022-10-22T05:13:56.979Z,5.63
2022-10-22T05:16:25.139Z,5.47
2022-10-22T05:18:51.806Z,5.88
2022-10-22T05:21:19.754Z,6.75
2022-10-22T05:23:48.801Z,4.28
2022-10-22T05:26:18.124Z,3.72
2022-10-22T05:28:44.966Z,4.10
2022-10-22T05:31:13.269Z,8.55
2022-10-22T05:33:40.739Z,5.60
2022-10-22T05:36:10.706Z,3.67
2022-10-22T05:38:37.431Z,4.63
2022-10-22T05:41:06.912Z,4.43
2022-10-22T05:43:33.680Z,3.28
2022-10-22T05:46:05.311Z,12.35
2022-10-22T05:51:12.464Z,3.50
2022-10-22T05:53:41.530Z,3.83
2022-10-22T05:56:12.967Z,4.05
2022-10-22T05:58:39.685Z,1.88
2022-10-22T06:01:09.166Z,6.97
2022-10-22T06:03:35.562Z,5.72
2022-10-22T06:06:04.934Z,2.05
2022-10-22T06:08:31.610Z,1.45
2022-10-22T06:10:58.129Z,0.85
2022-10-22T06:13:24.558Z,3.25
2022-10-22T06:15:53.532Z,1.13
2022-10-22T06:18:19.954Z,2.58
2022-10-22T06:20:47.566Z,5.13
2022-10-22T06:23:14.720Z,2.97
2022-10-22T06:25:42.194Z,3.08
2022-10-22T06:28:08.568Z,2.25
2022-10-22T06:30:36.754Z,3.47
2022-10-22T06:33:03.286Z,6.53
2022-10-22T06:35:29.688Z,2.58
2022-10-22T06:37:56.135Z,1.60
2022-10-22T06:40:23.197Z,2.85
2022-10-22T06:42:49.570Z,2.10
2022-10-22T06:45:16.040Z,4.82
2022-10-22T06:47:42.675Z,7.88
2022-10-22T06:50:09.743Z,2.63
2022-10-22T06:52:36.179Z,7.55
2022-10-22T06:55:02.671Z,3.47
2022-10-22T06:57:30.443Z,5.82
2022-10-22T06:59:56.837Z,4.47
2022-10-22T07:02:23.199Z,3.30
2022-10-22T07:04:49.622Z,4.70
2022-10-22T07:07:16.156Z,2.75
2022-10-22T07:09:45.388Z,0.80
2022-10-22T07:12:12.932Z,2.58
2022-10-22T07:14:39.417Z,1.63
2022-10-22T07:17:05.899Z,2.60
2022-10-22T07:19:32.960Z,0.57
2022-10-22T07:21:59.399Z,2.63
2022-10-22T07:24:26.077Z,5.97
2022-10-22T07:26:52.988Z,1.48
2022-10-22T07:29:19.373Z,4.10
2022-10-22T07:31:46.041Z,1.63
2022-10-22T07:34:12.994Z,2.67
2022-10-22T07:36:39.505Z,2.17
2022-10-22T07:39:05.904Z,4.03
2022-10-22T07:41:32.295Z,2.17
2022-10-22T07:43:58.812Z,3.17
2022-10-22T07:46:26.434Z,3.30
2022-10-22T07:48:53.359Z,3.72
2022-10-22T07:51:19.809Z,3.83
2022-10-22T07:53:46.285Z,4.75
2022-10-22T07:56:13.853Z,5.95
2022-10-22T07:58:41.534Z,9.63
2022-10-22T08:01:08.056Z,1.02
2022-10-22T08:03:34.989Z,6.28
2022-10-22T08:06:02.190Z,6.70
2022-10-22T08:08:30.870Z,4.72
2022-10-22T08:11:00.418Z,3.60
2022-10-22T08:13:27.632Z,2.70
2022-10-22T08:15:57.319Z,1.70
2022-10-22T08:18:24.519Z,2.72
2022-10-22T08:20:51.258Z,2.03
2022-10-22T08:23:17.859Z,1.80
2022-10-22T08:25:44.284Z,3.20
2022-10-22T08:28:10.773Z,3.40
2022-10-22T08:30:38.639Z,5.40
2022-10-22T08:33:05.643Z,4.20
2022-10-22T08:35:32.149Z,6.28
2022-10-22T08:37:58.630Z,9.27
2022-10-22T08:40:34.805Z,4.57
2022-10-22T08:43:41.797Z,2.88
2022-10-22T08:46:23.079Z,3.70
2022-10-22T08:48:52.990Z,8.98
2022-10-22T08:51:23.437Z,3.35
2022-10-22T08:54:04.755Z,10.52
2022-10-22T08:56:32.810Z,5.03
2022-10-22T08:59:34.696Z,13.13
2022-10-22T09:02:02.491Z,6.70
2022-10-22T09:04:36.390Z,1.92
2022-10-22T09:07:02.848Z,2.63
2022-10-22T09:09:39.632Z,4.28
2022-10-22T09:12:07.146Z,2.05
2022-10-22T09:14:33.633Z,5.35
2022-10-22T09:17:19.635Z,3.58
2022-10-22T09:20:09.128Z,5.88
2022-10-22T09:22:46.266Z,3.53
2022-10-22T09:25:18.699Z,3.70
2022-10-22T09:27:45.832Z,3.03
2022-10-22T09:30:24.464Z,10.50
2022-10-22T09:32:59.296Z,3.20
2022-10-22T09:35:25.839Z,5.38
2022-10-22T09:37:56.937Z,4.03
2022-10-22T09:40:24.023Z,2.65
2022-10-22T09:42:50.469Z,4.72
2022-10-22T09:45:24.366Z,2.55
2022-10-22T09:48:03.236Z,5.03
2022-10-22T09:50:41.258Z,2.65
2022-10-22T09:53:38.205Z,5.53
2022-10-22T09:56:22.203Z,2.60
2022-10-22T09:58:51.121Z,6.78
2022-10-22T10:01:32.956Z,5.32
2022-10-22T10:04:08.555Z,9.02
2022-10-22T10:06:39.077Z,8.38
2022-10-22T10:09:19.928Z,8.40
2022-10-22T10:11:50.188Z,7.82
2022-10-22T10:14:29.697Z,12.30
2022-10-22T10:17:17.077Z,3.47
2022-10-22T10:19:43.370Z,5.90
2022-10-22T10:22:20.621Z,5.85
2022-10-22T10:25:09.397Z,5.13
2022-10-22T10:27:44.874Z,7.97
2022-10-22T10:30:18.278Z,5.50
2022-10-22T10:33:18.911Z,19.17
2022-10-22T10:35:58.701Z,7.43
2022-10-22T10:38:46.137Z,3.65
2022-10-22T10:41:21.497Z,6.55
2022-10-22T10:44:16.242Z,10.55
2022-10-22T10:47:13.866Z,6.47
2022-10-22T10:49:43.115Z,5.82
2022-10-22T10:52:53.039Z,7.65
2022-10-22T10:55:30.731Z,7.80
2022-10-22T10:58:15.177Z,6.88
2022-10-22T11:00:53.031Z,8.95
2022-10-22T11:03:37.683Z,8.43
2022-10-22T11:06:12.255Z,4.45
2022-10-22T11:08:49.978Z,7.20
2022-10-22T11:11:48.213Z,8.43
2022-10-22T11:14:18.916Z,6.22
2022-10-22T11:16:59.068Z,6.18
2022-10-22T11:19:50.845Z,5.20
2022-10-22T11:22:44.485Z,7.00
2022-10-22T11:25:29.014Z,8.02
2022-10-22T11:28:07.862Z,7.05
2022-10-22T11:30:38.603Z,5.05
2022-10-22T11:33:11.496Z,6.30
2022-10-22T11:35:42.264Z,2.95
2022-10-22T11:38:14.987Z,7.63
2022-10-22T11:41:00.919Z,8.20
2022-10-22T11:43:52.450Z,3.13
2022-10-22T11:46:18.810Z,3.00
2022-10-22T11:49:20.976Z,4.50
2022-10-22T11:51:47.795Z,2.72
2022-10-22T11:54:29.537Z,9.95
2022-10-22T11:57:14.449Z,5.05
2022-10-22T11:59:52.337Z,4.78
2022-10-22T12:02:50.963Z,3.92
2022-10-22T12:05:20.316Z,5.68
2022-10-22T12:08:05.637Z,6.05
2022-10-22T12:10:55.402Z,4.35
2022-10-22T12:13:26.471Z,3.25
2022-10-22T12:16:01.402Z,4.38
2022-10-22T12:18:35.991Z,5.53
2022-10-22T12:21:02.438Z,8.52
2022-10-22T12:23:34.233Z,6.32
2022-10-22T12:26:00.711Z,11.20
2022-10-22T12:28:27.142Z,4.32
2022-10-22T12:30:53.602Z,4.93
2022-10-22T12:33:23.487Z,6.90
2022-10-22T12:35:52.982Z,7.07
2022-10-22T12:38:25.538Z,4.72
2022-10-22T12:40:55.401Z,5.47
2022-10-22T12:43:30.729Z,5.07
2022-10-22T12:45:59.670Z,7.53
2022-10-22T12:48:36.263Z,8.00
2022-10-22T12:51:08.012Z,2.47
2022-10-22T12:53:43.160Z,7.27
2022-10-22T12:56:22.206Z,4.63
2022-10-22T12:58:55.139Z,3.60
2022-10-22T13:01:21.779Z,4.13
2022-10-22T13:03:51.533Z,4.88
2022-10-22T13:06:21.514Z,5.47
2022-10-22T13:09:00.380Z,3.70
2022-10-22T13:12:04.600Z,6.28
2022-10-22T13:14:33.154Z,6.95
2022-10-22T13:17:20.787Z,6.25
2022-10-22T13:20:07.610Z,5.75
2022-10-22T13:22:39.583Z,3.45
2022-10-22T13:25:15.896Z,4.13
2022-10-22T13:28:08.212Z,2.42
2022-10-22T13:30:37.183Z,7.18
2022-10-22T13:33:29.307Z,5.35
2022-10-22T13:35:56.982Z,3.55
2022-10-22T13:38:26.279Z,5.32
2022-10-22T13:40:52.902Z,6.15
2022-10-22T13:43:20.160Z,5.28
2022-10-22T13:45:54.356Z,6.13
2022-10-22T13:48:23.364Z,5.25
2022-10-22T13:50:51.169Z,5.90
2022-10-22T13:53:26.376Z,4.35
2022-10-22T13:55:53.477Z,11.95
2022-10-22T13:58:23.883Z,5.07
2022-10-22T14:00:55.721Z,6.05
2022-10-22T14:03:26.251Z,7.15
2022-10-22T14:05:52.633Z,7.32
2022-10-22T14:08:21.371Z,4.70
2022-10-22T14:10:48.034Z,5.10
2022-10-22T14:13:15.991Z,8.38
2022-10-22T14:15:45.140Z,7.38
2022-10-22T14:18:16.037Z,9.50
2022-10-22T14:20:42.818Z,9.25
2022-10-22T14:23:19.757Z,5.32
2022-10-22T14:25:47.024Z,11.27
2022-10-22T14:28:14.300Z,3.42
2022-10-22T14:30:41.224Z,4.57
2022-10-22T14:33:28.958Z,5.50
2022-10-22T14:35:59.384Z,7.38
2022-10-22T14:38:25.840Z,6.25
2022-10-22T14:40:52.386Z,9.10
2022-10-22T14:43:31.275Z,9.05
2022-10-22T14:45:58.487Z,9.80
2022-10-22T14:48:24.913Z,8.02
2022-10-22T14:50:52.003Z,9.82
2022-10-22T14:53:18.462Z,4.00
2022-10-22T14:55:47.325Z,7.07
2022-10-22T14:58:14.212Z,3.85
2022-10-22T15:00:42.391Z,4.10
2022-10-22T15:03:09.570Z,2.97
2022-10-22T15:05:36.397Z,4.53
2022-10-22T15:08:03.075Z,7.20
2022-10-22T15:10:29.463Z,9.50
2022-10-22T15:12:55.859Z,4.97
2022-10-22T15:15:23.234Z,4.35
2022-10-22T15:17:50.998Z,5.57
2022-10-22T15:20:17.398Z,4.15
2022-10-22T15:22:44.232Z,9.10
2022-10-22T15:25:13.196Z,4.88
2022-10-22T15:27:40.075Z,32.97
2022-10-22T15:30:07.675Z,3.85
2022-10-22T15:32:34.250Z,10.90
2022-10-22T15:35:01.469Z,9.95
2022-10-22T15:37:27.865Z,9.52
2022-10-22T15:39:54.386Z,10.93
2022-10-22T15:42:20.955Z,13.70
2022-10-22T15:44:47.370Z,11.23
2022-10-22T15:47:14.033Z,6.57
2022-10-22T15:49:41.814Z,7.55
2022-10-22T15:52:08.997Z,14.10
2022-10-22T15:54:35.695Z,13.05
2022-10-22T15:57:03.900Z,6.90
2022-10-22T15:59:30.639Z,10.65
2022-10-22T16:01:57.093Z,6.10
2022-10-22T16:04:23.576Z,3.25
2022-10-22T16:06:54.989Z,11.68
2022-10-22T16:09:24.270Z,10.15
2022-10-22T16:14:20.631Z,11.27
2022-10-22T16:16:49.656Z,6.55
2022-10-22T16:19:17.772Z,10.38
2022-10-22T16:21:44.928Z,9.82
2022-10-22T16:24:12.180Z,8.13
2022-10-22T16:26:38.980Z,7.70
2022-10-22T16:29:05.825Z,6.15
2022-10-22T16:31:32.283Z,9.50
2022-10-22T16:33:58.722Z,6.30
2022-10-22T16:36:25.585Z,7.78
2022-10-22T16:38:52.077Z,7.60
2022-10-22T16:41:24.489Z,7.90
2022-10-22T16:43:54.968Z,7.57
2022-10-22T16:46:22.803Z,13.32
2022-10-22T16:48:53.759Z,8.85
2022-10-22T16:51:23.669Z,8.32
2022-10-22T16:53:53.273Z,13.02
2022-10-22T16:56:20.304Z,12.85
2022-10-22T16:58:49.603Z,11.02
2022-10-22T17:01:18.275Z,7.35
2022-10-22T17:03:45.028Z,8.77
2022-10-22T17:06:12.170Z,9.23
2022-10-22T17:08:40.235Z,7.93
2022-10-22T17:11:17.652Z,9.20
2022-10-22T17:13:49.337Z,11.55
2022-10-22T17:16:18.641Z,6.95
2022-10-22T17:21:19.011Z,12.30
2022-10-22T17:23:46.040Z,10.07
2022-10-22T17:26:17.413Z,8.40
2022-10-22T17:28:44.397Z,11.43
2022-10-22T17:31:22.813Z,7.55
2022-10-22T17:33:51.071Z,5.28
2022-10-22T17:36:18.844Z,8.35
2022-10-22T17:38:48.939Z,5.40
2022-10-22T17:41:18.481Z,10.73
2022-10-22T17:46:20.364Z,9.38
2022-10-22T17:48:51.857Z,18.98
2022-10-22T17:51:19.284Z,12.00
2022-10-22T17:53:46.428Z,13.02
2022-10-22T17:56:15.848Z,5.85
2022-10-22T17:58:42.331Z,5.70
2022-10-22T18:01:20.901Z,8.07
2022-10-22T18:03:47.617Z,15.18
2022-10-22T18:06:14.345Z,8.10
2022-10-22T18:08:41.415Z,8.80
2022-10-22T18:11:10.277Z,9.82
2022-10-22T18:13:36.715Z,9.25
2022-10-22T18:16:03.268Z,9.77
2022-10-22T18:18:29.748Z,12.25
2022-10-22T18:20:56.209Z,7.78
2022-10-22T18:23:22.698Z,5.80
2022-10-22T18:25:49.243Z,11.85
2022-10-22T18:28:16.858Z,12.75
2022-10-22T18:30:44.585Z,10.55
2022-10-22T18:33:12.710Z,15.10
2022-10-22T18:35:41.198Z,15.80
2022-10-22T18:38:08.856Z,15.98
2022-10-22T18:40:36.032Z,17.95
2022-10-22T18:43:03.931Z,20.48
2022-10-22T18:45:30.322Z,25.02
2022-10-22T18:47:56.748Z,20.30
2022-10-22T18:50:23.177Z,20.83
2022-10-22T18:52:49.655Z,20.77
2022-10-22T18:55:16.133Z,24.98
2022-10-22T18:57:42.561Z,25.13
2022-10-22T19:00:09.519Z,29.40
2022-10-22T19:02:37.531Z,24.58
2022-10-22T19:05:04.183Z,19.40
2022-10-22T19:07:31.795Z,18.90
2022-10-22T19:09:58.918Z,16.42
2022-10-22T19:12:25.388Z,14.98
2022-10-22T19:14:52.915Z,9.18
2022-10-22T19:17:19.372Z,14.75
2022-10-22T19:19:45.753Z,10.65
2022-10-22T19:22:12.936Z,16.70
2022-10-22T19:24:39.508Z,7.40
2022-10-22T19:27:05.969Z,11.77
2022-10-22T19:29:32.797Z,9.10
2022-10-22T19:31:59.463Z,6.50
2022-10-22T19:34:25.851Z,11.68
2022-10-22T19:36:52.304Z,14.63
2022-10-22T19:39:20.575Z,13.20
2022-10-22T19:41:47.019Z,16.52
2022-10-22T19:44:13.449Z,10.90
2022-10-22T19:46:40.122Z,17.35
2022-10-22T19:49:06.621Z,13.45
2022-10-22T19:51:35.910Z,16.77
2022-10-22T19:54:05.747Z,11.60
2022-10-22T19:56:34.291Z,9.27
2022-10-22T19:59:01.026Z,5.72
2022-10-22T20:01:28.146Z,16.50
2022-10-22T20:03:54.805Z,8.75
2022-10-22T20:06:21.947Z,14.15
2022-10-22T20:08:50.004Z,10.85
2022-10-22T20:11:22.018Z,18.30
2022-10-22T20:13:51.434Z,12.93
2022-10-22T20:16:23.061Z,17.55
2022-10-22T20:18:49.984Z,12.70
2022-10-22T20:21:19.394Z,18.58
2022-10-22T20:23:46.380Z,20.38
2022-10-22T20:26:13.447Z,19.08
2022-10-22T20:28:40.139Z,15.85
2022-10-22T20:31:14.582Z,26.92
2022-10-22T20:33:40.971Z,20.17
2022-10-22T20:36:15.619Z,20.10
2022-10-22T20:38:42.133Z,20.90
2022-10-22T20:41:12.295Z,27.38
2022-10-22T20:43:38.681Z,15.70
2022-10-22T20:46:05.539Z,12.98
2022-10-22T20:48:32.340Z,27.13
2022-10-22T20:50:59.989Z,17.88
2022-10-22T20:53:27.543Z,20.40
2022-10-22T20:55:57.404Z,14.52
2022-10-22T20:58:26.681Z,13.75
2022-10-22T21:00:54.783Z,13.77
2022-10-22T21:03:21.233Z,21.55
2022-10-22T21:05:47.779Z,15.45
2022-10-22T21:08:17.422Z,17.63
2022-10-22T21:10:46.365Z,18.50
2022-10-22T21:13:13.659Z,17.42
2022-10-22T21:15:40.223Z,14.55
2022-10-22T21:18:07.171Z,13.45
2022-10-22T21:20:33.562Z,20.60
2022-10-22T21:22:59.978Z,17.23
2022-10-22T21:25:26.467Z,14.15
2022-10-22T21:27:52.875Z,15.93
2022-10-22T21:30:19.249Z,19.63
2022-10-22T21:32:45.672Z,20.02
2022-10-22T21:35:12.185Z,20.35
2022-10-22T21:37:38.857Z,28.88
2022-10-22T21:40:06.038Z,24.92
2022-10-22T21:42:32.676Z,23.90
2022-10-22T21:44:59.196Z,24.88
2022-10-22T21:47:25.816Z,19.02
2022-10-22T21:49:52.325Z,29.90
2022-10-22T21:52:18.768Z,28.80
2022-10-22T21:54:45.135Z,25.15
2022-10-22T21:57:11.542Z,20.85
2022-10-22T21:59:38.113Z,26.42
2022-10-22T22:02:05.841Z,13.30
2022-10-22T22:04:32.630Z,14.05
2022-10-22T22:06:59.190Z,14.90
2022-10-22T22:09:25.631Z,14.27
2022-10-22T22:11:52.116Z,17.35
2022-10-22T22:14:18.481Z,8.98
2022-10-22T22:16:44.902Z,8.57
2022-10-22T22:19:12.359Z,10.18
2022-10-22T22:21:40.380Z,16.92
2022-10-22T22:24:07.972Z,15.77
2022-10-22T22:26:34.519Z,10.75
2022-10-22T22:29:01.713Z,9.20
2022-10-22T22:31:33.304Z,12.15
2022-10-22T22:34:10.741Z,12.73
2022-10-22T22:36:40.415Z,16.60
2022-10-22T22:39:11.205Z,10.23
2022-10-22T22:41:37.757Z,21.73
2022-10-22T22:44:04.495Z,10.13
2022-10-22T22:46:31.046Z,10.07
2022-10-22T22:48:57.418Z,11.48
2022-10-22T22:51:24.155Z,12.23
2022-10-22T22:53:50.882Z,12.13
2022-10-22T22:56:23.003Z,18.23
2022-10-22T22:58:50.015Z,18.17
2022-10-22T23:01:29.191Z,19.90
2022-10-22T23:03:57.079Z,10.27
2022-10-22T23:06:25.442Z,10.35
2022-10-22T23:08:53.244Z,15.38
2022-10-22T23:11:20.783Z,20.38
2022-10-22T23:13:50.943Z,20.48
2022-10-22T23:16:22.019Z,17.55
2022-10-22T23:18:49.487Z,16.10
2022-10-22T23:21:18.969Z,10.27
2022-10-22T23:23:50.612Z,16.23
2022-10-22T23:26:20.119Z,14.48
2022-10-22T23:28:47.076Z,15.07
2022-10-22T23:31:15.339Z,16.00
2022-10-22T23:33:43.067Z,13.68
2022-10-22T23:36:10.226Z,12.30
2022-10-22T23:38:38.346Z,17.02
2022-10-22T23:41:05.409Z,12.85
2022-10-22T23:43:32.278Z,19.30
2022-10-22T23:45:58.778Z,15.25
2022-10-22T23:48:25.309Z,13.38
2022-10-22T23:53:23.210Z,16.58
2022-10-22T23:55:49.661Z,21.73
2022-10-22T23:58:17.238Z,9.73
